Time;durP1;ratioP1;P1;durP2;ratioP2;P2;SDS_P1;SDS_P2;PMS_P1;PMS_P2;Temp;Humidity;BMP_temperature;BMP_pressure;BME280_temperature;BME280_humidity;BME280_pressure;Samples;Min_cycle;Max_cycle;Signal;HPM_P1;HPM_P2
2024/01/15 00:01:17;;;;;;;8.40;4.07;;;0.70;60.70;;;;;;4949351;28;115664;-81
2024/01/15 00:03:45;;;;;;;6.65;3.47;;;0.70;60.70;;;;;;4964301;28;114646;-81
2024/01/15 00:06:17;;;;;;;6.32;3.05;;;0.60;60.70;;;;;;4948640;28;114336;-81
2024/01/15 00:08:47;;;;;;;5.95;3.17;;;0.60;60.80;;;;;;4965036;28;114520;-82
2024/01/15 00:11:17;;;;;;;6.45;3.22;;;0.70;60.70;;;;;;4947814;28;115118;-82
2024/01/15 00:13:45;;;;;;;7.05;3.15;;;0.60;60.80;;;;;;4947719;28;114896;-82
2024/01/15 00:16:12;;;;;;;7.15;3.42;;;0.60;60.90;;;;;;4948241;28;114646;-81
2024/01/15 00:18:39;;;;;;;7.65;3.70;;;0.60;60.90;;;;;;4950141;28;114018;-82
2024/01/15 00:21:07;;;;;;;8.27;3.50;;;0.70;61.00;;;;;;4963714;28;115647;-81
2024/01/15 00:23:34;;;;;;;7.22;3.63;;;0.70;61.00;;;;;;4948704;28;114692;-81
2024/01/15 00:26:02;;;;;;;7.75;3.65;;;0.70;61.00;;;;;;4964170;28;114821;-82
2024/01/15 00:28:29;;;;;;;8.73;2.97;;;0.70;60.90;;;;;;4948261;28;114393;-81
2024/01/15 00:30:56;;;;;;;7.38;3.15;;;0.80;60.80;;;;;;4963780;28;115035;-81
2024/01/15 00:33:24;;;;;;;6.30;3.55;;;0.70;60.80;;;;;;4948633;28;114561;-83
2024/01/15 00:35:51;;;;;;;7.07;3.63;;;0.80;60.70;;;;;;4948376;28;114272;-82
2024/01/15 00:38:18;;;;;;;7.63;2.97;;;0.80;60.60;;;;;;4948330;28;114525;-81
2024/01/15 00:40:46;;;;;;;7.68;3.97;;;0.90;60.70;;;;;;4946863;28;115566;-81
2024/01/15 00:43:13;;;;;;;6.32;2.70;;;0.80;60.70;;;;;;4948700;28;115224;-82
2024/01/15 00:45:41;;;;;;;7.20;3.13;;;0.90;60.60;;;;;;4964254;28;114522;-82
2024/01/15 00:48:08;;;;;;;8.18;3.47;;;0.90;60.60;;;;;;4949689;28;114428;-81
2024/01/15 00:50:36;;;;;;;5.72;2.60;;;0.90;60.50;;;;;;4947937;28;115104;-81
2024/01/15 00:53:03;;;;;;;5.80;2.30;;;0.90;60.50;;;;;;4948159;28;114719;-81
2024/01/15 00:55:30;;;;;;;5.80;2.20;;;0.90;60.40;;;;;;4947976;28;114528;-81
2024/01/15 00:57:58;;;;;;;6.55;2.92;;;0.90;60.40;;;;;;4948197;28;114294;-81
2024/01/15 01:00:25;;;;;;;5.38;2.75;;;0.90;60.40;;;;;;4948364;28;115014;-81
2024/01/15 01:02:52;;;;;;;5.88;2.70;;;0.90;60.30;;;;;;4946850;28;114747;-81
2024/01/15 01:05:20;;;;;;;5.78;2.63;;;0.90;60.40;;;;;;4947917;28;114266;-81
2024/01/15 01:07:47;;;;;;;5.75;2.33;;;0.90;60.40;;;;;;4949250;28;114429;-81
2024/01/15 01:10:14;;;;;;;4.38;2.03;;;0.80;60.50;;;;;;4947205;28;115165;-81
2024/01/15 01:12:42;;;;;;;5.57;2.55;;;0.90;60.40;;;;;;4947629;28;114998;-81
2024/01/15 01:15:09;;;;;;;4.45;2.13;;;0.90;60.30;;;;;;4968781;28;114177;-81
2024/01/15 01:17:36;;;;;;;4.43;2.22;;;0.90;60.30;;;;;;4956554;28;114537;-82
2024/01/15 01:20:09;;;;;;;5.68;2.50;;;0.90;60.30;;;;;;4946616;28;116282;-82
2024/01/15 01:22:37;;;;;;;6.85;2.45;;;0.90;60.20;;;;;;4946703;28;118320;-81
2024/01/15 01:25:04;;;;;;;3.92;2.00;;;0.90;60.20;;;;;;4964576;28;114308;-82
2024/01/15 01:27:32;;;;;;;4.97;1.98;;;0.90;60.20;;;;;;4948376;28;114712;-82
2024/01/15 01:29:59;;;;;;;5.03;2.33;;;0.90;60.10;;;;;;4946741;28;114988;-81
2024/01/15 01:32:29;;;;;;;5.63;2.15;;;0.80;60.10;;;;;;4962941;28;114813;-83
2024/01/15 01:34:57;;;;;;;4.35;2.13;;;0.90;60.10;;;;;;4963343;28;114505;-81
2024/01/15 01:37:24;;;;;;;5.68;2.00;;;0.90;60.00;;;;;;4948806;28;114230;-82
2024/01/15 01:39:51;;;;;;;5.25;1.90;;;0.90;60.00;;;;;;4947354;28;117198;-81
2024/01/15 01:42:19;;;;;;;4.18;2.30;;;0.90;60.00;;;;;;4947494;28;115879;-80
2024/01/15 01:44:48;;;;;;;4.25;1.65;;;0.90;59.90;;;;;;4963315;28;114452;-82
2024/01/15 01:47:15;;;;;;;4.57;1.92;;;0.90;60.00;;;;;;4946725;28;114568;-82
2024/01/15 01:49:42;;;;;;;5.60;2.25;;;0.90;60.00;;;;;;4946038;28;116095;-81
2024/01/15 01:52:10;;;;;;;4.40;1.88;;;0.90;59.90;;;;;;4962321;28;116121;-81
2024/01/15 01:54:37;;;;;;;4.50;2.00;;;0.90;59.90;;;;;;4947230;28;114341;-81
2024/01/15 01:57:05;;;;;;;4.55;1.88;;;0.90;59.90;;;;;;4947619;28;114609;-80
2024/01/15 01:59:33;;;;;;;4.40;2.03;;;0.90;59.80;;;;;;4962388;28;115491;-81
2024/01/15 02:02:01;;;;;;;4.07;1.45;;;0.90;59.80;;;;;;4946180;28;114617;-82
2024/01/15 02:04:28;;;;;;;4.43;1.70;;;0.80;59.80;;;;;;4947038;28;114235;-82
2024/01/15 02:06:58;;;;;;;5.10;1.90;;;0.90;59.80;;;;;;4947351;28;114509;-82
2024/01/15 02:09:26;;;;;;;4.15;1.70;;;0.90;59.60;;;;;;4952787;28;118033;-82
2024/01/15 02:11:53;;;;;;;3.97;1.70;;;0.90;59.60;;;;;;4975100;28;114703;-83
2024/01/15 02:14:20;;;;;;;4.13;1.52;;;0.90;59.40;;;;;;4952636;28;114662;-82
2024/01/15 02:16:51;;;;;;;3.25;1.52;;;0.90;59.40;;;;;;4963595;28;114260;-82
2024/01/15 02:19:18;;;;;;;3.35;1.30;;;0.80;59.50;;;;;;4930241;28;117956;-81
2024/01/15 02:21:46;;;;;;;3.90;1.80;;;0.80;59.50;;;;;;4967105;28;114866;-81
2024/01/15 02:24:13;;;;;;;3.35;1.50;;;0.80;59.30;;;;;;4968491;28;114223;-80
2024/01/15 02:26:41;;;;;;;3.47;1.33;;;0.80;59.40;;;;;;4952308;28;114293;-81
2024/01/15 02:29:11;;;;;;;3.25;1.38;;;0.80;59.10;;;;;;4949207;28;115107;-82
2024/01/15 02:31:38;;;;;;;2.28;1.35;;;0.80;58.90;;;;;;4949400;28;114607;-81
2024/01/15 02:34:06;;;;;;;2.60;1.27;;;0.80;58.80;;;;;;4951658;28;114313;-81
2024/01/15 02:36:33;;;;;;;3.70;1.48;;;0.80;58.90;;;;;;4951351;28;114137;-81
2024/01/15 02:39:01;;;;;;;3.92;1.52;;;0.80;59.10;;;;;;4950432;28;115738;-81
2024/01/15 02:41:28;;;;;;;3.55;1.60;;;0.80;59.20;;;;;;4932935;28;117367;-82
2024/01/15 02:43:55;;;;;;;4.50;1.80;;;0.80;59.20;;;;;;4934372;28;114305;-82
2024/01/15 02:46:23;;;;;;;5.68;2.05;;;0.80;59.30;;;;;;4982243;28;114458;-82
2024/01/15 02:48:50;;;;;;;5.47;2.40;;;0.80;59.30;;;;;;4989404;28;115289;-81
2024/01/15 02:51:18;;;;;;;3.38;1.30;;;0.80;59.20;;;;;;4989466;28;114728;-82
2024/01/15 02:53:45;;;;;;;4.18;1.52;;;0.90;59.30;;;;;;4990284;28;114445;-82
2024/01/15 02:56:12;;;;;;;3.70;1.40;;;0.90;59.20;;;;;;4973091;28;114298;-82
2024/01/15 02:58:39;;;;;;;4.20;1.58;;;0.90;59.10;;;;;;4990838;28;115404;-83
2024/01/15 03:01:07;;;;;;;3.70;1.55;;;0.90;59.10;;;;;;5014916;28;113379;-82
2024/01/15 03:03:34;;;;;;;3.67;1.40;;;0.90;59.00;;;;;;4973495;28;114208;-80
2024/01/15 03:06:02;;;;;;;3.33;1.60;;;0.90;59.10;;;;;;4992147;28;114409;-81
2024/01/15 03:08:30;;;;;;;5.38;1.65;;;1.00;59.00;;;;;;4990476;28;115122;-81
2024/01/15 03:10:57;;;;;;;2.80;1.40;;;0.90;58.90;;;;;;4989887;28;115322;-82
2024/01/15 03:13:24;;;;;;;4.13;1.77;;;1.00;58.90;;;;;;4973053;28;114551;-82
2024/01/15 03:15:52;;;;;;;5.03;1.65;;;0.90;58.80;;;;;;4990801;28;114185;-81
2024/01/15 03:18:19;;;;;;;3.40;1.48;;;1.00;58.80;;;;;;4989095;28;115118;-81
2024/01/15 03:20:47;;;;;;;3.45;1.60;;;1.00;58.70;;;;;;4987684;28;115615;-82
2024/01/15 03:23:15;;;;;;;4.43;1.85;;;0.90;58.50;;;;;;4989228;28;114170;-82
2024/01/15 03:25:43;;;;;;;5.07;1.92;;;0.90;58.50;;;;;;4989839;28;114161;-82
2024/01/15 03:28:10;;;;;;;4.15;1.67;;;0.90;58.60;;;;;;4988044;28;115087;-82
2024/01/15 03:30:37;;;;;;;4.93;1.70;;;0.90;58.50;;;;;;4971305;28;114852;-82
2024/01/15 03:33:05;;;;;;;3.83;1.60;;;0.90;58.60;;;;;;4989085;28;114312;-82
2024/01/15 03:35:32;;;;;;;4.10;1.60;;;0.90;58.60;;;;;;4988512;28;114234;-84
2024/01/15 03:38:00;;;;;;;5.22;2.15;;;0.90;58.40;;;;;;4988450;28;117347;-83
2024/01/15 03:40:27;;;;;;;3.45;1.70;;;0.80;58.40;;;;;;4987254;28;115131;-82
2024/01/15 03:42:56;;;;;;;6.47;1.83;;;0.80;58.40;;;;;;4989571;28;114222;-82
2024/01/15 03:45:23;;;;;;;3.97;1.80;;;0.70;58.50;;;;;;5005102;28;114877;-82
2024/01/15 03:47:51;;;;;;;5.07;1.60;;;0.70;58.50;;;;;;4987285;28;115702;-82
2024/01/15 03:50:19;;;;;;;4.40;2.20;;;0.80;58.60;;;;;;4988610;28;115125;-82
2024/01/15 03:52:46;;;;;;;5.80;2.40;;;0.70;58.60;;;;;;4988606;28;114277;-82
2024/01/15 03:55:14;;;;;;;4.90;1.80;;;0.70;58.60;;;;;;4988455;28;114361;-81
2024/01/15 03:57:41;;;;;;;4.80;1.90;;;0.70;58.70;;;;;;5003763;28;115088;-82
2024/01/15 04:00:09;;;;;;;4.50;1.77;;;0.70;58.70;;;;;;4988753;28;114647;-82
2024/01/15 04:02:36;;;;;;;4.75;1.88;;;0.70;58.70;;;;;;4988088;28;114308;-82
2024/01/15 04:05:04;;;;;;;3.30;1.45;;;0.80;58.60;;;;;;4955444;28;114441;-83
2024/01/15 04:07:31;;;;;;;4.55;1.50;;;0.70;58.50;;;;;;4986836;28;115266;-83
2024/01/15 04:09:59;;;;;;;4.35;1.30;;;0.70;58.60;;;;;;4970722;28;114797;-83
2024/01/15 04:12:29;;;;;;;3.28;1.45;;;0.70;58.60;;;;;;4988140;28;114517;-83
2024/01/15 04:14:57;;;;;;;3.63;1.42;;;0.70;58.60;;;;;;4955452;28;114320;-83
2024/01/15 04:17:24;;;;;;;3.92;1.55;;;0.80;58.70;;;;;;4986537;28;116022;-83
2024/01/15 04:19:51;;;;;;;4.38;1.80;;;0.80;58.60;;;;;;4969892;28;116808;-83
2024/01/15 04:22:19;;;;;;;3.55;1.35;;;0.70;58.50;;;;;;4989064;28;114234;-82
2024/01/15 04:24:46;;;;;;;4.15;1.50;;;0.80;58.50;;;;;;4987699;28;114867;-82
2024/01/15 04:27:13;;;;;;;4.28;1.45;;;0.80;58.50;;;;;;4988005;28;115128;-82
2024/01/15 04:29:41;;;;;;;4.78;1.33;;;0.80;58.40;;;;;;4988191;28;114760;-81
2024/01/15 04:32:08;;;;;;;2.97;1.58;;;0.80;58.40;;;;;;4956427;28;114454;-81
2024/01/15 04:34:35;;;;;;;3.63;1.60;;;0.70;58.50;;;;;;4993452;28;114187;-81
2024/01/15 04:37:03;;;;;;;4.03;1.92;;;0.70;58.50;;;;;;4988671;28;116342;-81
2024/01/15 04:39:30;;;;;;;3.65;1.80;;;0.70;58.60;;;;;;4988059;28;114579;-82
2024/01/15 04:42:01;;;;;;;4.80;1.70;;;0.70;58.70;;;;;;4988325;28;114255;-82
2024/01/15 04:44:30;;;;;;;4.55;1.92;;;0.70;58.70;;;;;;5000722;28;114139;-82
2024/01/15 04:46:58;;;;;;;4.10;1.90;;;0.70;58.70;;;;;;4994594;28;115251;-82
2024/01/15 04:49:27;;;;;;;7.13;1.90;;;0.70;58.70;;;;;;4973392;28;115001;-82
2024/01/15 04:51:54;;;;;;;3.83;1.85;;;0.70;58.70;;;;;;4990092;28;114302;-82
2024/01/15 04:54:23;;;;;;;4.78;1.90;;;0.70;58.80;;;;;;4988466;28;114109;-81
2024/01/15 04:56:51;;;;;;;5.85;2.22;;;0.70;58.70;;;;;;4987266;28;115077;-81
2024/01/15 04:59:18;;;;;;;4.53;2.00;;;0.70;58.70;;;;;;4989097;28;115105;-81
2024/01/15 05:01:46;;;;;;;3.95;2.47;;;0.60;58.80;;;;;;4988886;28;114314;-81
2024/01/15 05:04:13;;;;;;;4.43;2.05;;;0.70;58.70;;;;;;4988916;28;114353;-80
2024/01/15 05:06:40;;;;;;;3.50;2.03;;;0.60;58.80;;;;;;4988032;28;115066;-80
2024/01/15 05:09:08;;;;;;;4.15;1.77;;;0.60;58.80;;;;;;4986568;28;114301;-82
2024/01/15 05:11:35;;;;;;;6.35;2.42;;;0.60;58.70;;;;;;4988229;28;114512;-82
2024/01/15 05:14:03;;;;;;;5.55;2.10;;;0.60;58.80;;;;;;4987531;28;114367;-81
2024/01/15 05:16:30;;;;;;;5.93;2.40;;;0.60;58.80;;;;;;5002100;28;118855;-80
2024/01/15 05:19:00;;;;;;;5.13;2.55;;;0.60;58.90;;;;;;4987589;28;114607;-82
2024/01/15 05:21:28;;;;;;;5.10;2.15;;;0.60;58.90;;;;;;4953200;28;114433;-82
2024/01/15 05:23:55;;;;;;;4.72;2.10;;;0.60;58.90;;;;;;4971036;28;114325;-82
2024/01/15 05:26:22;;;;;;;5.07;2.25;;;0.60;58.90;;;;;;4985756;28;115613;-82
2024/01/15 05:28:49;;;;;;;3.80;1.98;;;0.60;58.90;;;;;;4986993;28;115033;-81
2024/01/15 05:31:17;;;;;;;4.50;2.22;;;0.60;58.80;;;;;;4986927;28;114397;-81
2024/01/15 05:33:44;;;;;;;4.15;2.00;;;0.60;58.80;;;;;;4988394;28;114313;-82
2024/01/15 05:36:12;;;;;;;4.03;2.13;;;0.60;58.70;;;;;;4987243;28;115532;-81
2024/01/15 05:38:40;;;;;;;4.60;2.20;;;0.60;58.80;;;;;;4971158;28;116137;-82
2024/01/15 05:41:07;;;;;;;3.85;1.75;;;0.60;58.80;;;;;;4950613;28;114574;-80
2024/01/15 05:43:35;;;;;;;5.18;2.30;;;0.60;58.70;;;;;;4968250;28;114594;-81
2024/01/15 05:46:02;;;;;;;6.22;2.10;;;0.50;58.70;;;;;;4981816;28;115173;-81
2024/01/15 05:48:30;;;;;;;6.80;2.80;;;0.50;58.80;;;;;;4965939;28;114685;-81
2024/01/15 05:50:57;;;;;;;6.22;2.20;;;0.50;58.80;;;;;;4966861;28;114648;-82
2024/01/15 05:53:25;;;;;;;6.85;2.50;;;0.50;58.80;;;;;;4983296;28;114320;-82
2024/01/15 05:55:54;;;;;;;4.28;2.20;;;0.50;58.80;;;;;;4966936;28;115271;-81
2024/01/15 05:58:21;;;;;;;4.32;1.98;;;0.40;58.80;;;;;;4968331;28;114626;-82
2024/01/15 06:00:49;;;;;;;4.85;2.20;;;0.50;58.80;;;;;;4970272;28;114407;-81
2024/01/15 06:03:17;;;;;;;4.93;2.20;;;0.50;58.90;;;;;;4986450;28;114574;-80
2024/01/15 06:05:44;;;;;;;5.55;1.98;;;0.50;58.90;;;;;;4969119;28;115288;-81
2024/01/15 06:08:12;;;;;;;5.25;1.95;;;0.50;58.90;;;;;;4970257;28;115029;-81
2024/01/15 06:10:39;;;;;;;6.10;2.40;;;0.40;58.90;;;;;;4970990;28;114546;-81
2024/01/15 06:13:07;;;;;;;4.47;1.90;;;0.40;58.90;;;;;;4953682;28;115314;-81
2024/01/15 06:15:36;;;;;;;4.65;2.08;;;0.40;58.90;;;;;;4968983;28;115118;-81
2024/01/15 06:18:04;;;;;;;4.70;1.67;;;0.40;59.10;;;;;;4984781;28;114601;-81
2024/01/15 06:20:35;;;;;;;4.63;2.15;;;0.40;59.10;;;;;;4953967;28;114285;-81
2024/01/15 06:23:03;;;;;;;3.60;1.77;;;0.40;59.10;;;;;;4972321;28;114349;-81
2024/01/15 06:25:30;;;;;;;5.15;2.40;;;0.40;59.20;;;;;;4968177;28;116325;-81
2024/01/15 06:27:57;;;;;;;4.32;2.00;;;0.40;59.20;;;;;;4969613;28;114597;-81
2024/01/15 06:30:25;;;;;;;5.00;2.13;;;0.40;59.10;;;;;;4983797;28;114184;-80
2024/01/15 06:32:52;;;;;;;6.03;2.80;;;0.40;59.20;;;;;;4987658;28;114579;-82
2024/01/15 06:35:20;;;;;;;3.92;2.25;;;0.40;59.20;;;;;;4970147;28;115026;-82
2024/01/15 06:37:51;;;;;;;7.10;2.65;;;0.40;59.20;;;;;;4953415;28;118315;-83
2024/01/15 06:40:18;;;;;;;5.90;2.80;;;0.40;59.30;;;;;;4986515;28;114471;-82
2024/01/15 06:42:46;;;;;;;5.25;2.47;;;0.40;59.40;;;;;;4971201;28;114203;-83
2024/01/15 06:45:13;;;;;;;7.00;2.72;;;0.40;59.50;;;;;;4968625;28;115872;-82
2024/01/15 06:47:41;;;;;;;6.60;2.95;;;0.40;59.60;;;;;;4968603;28;114721;-81
2024/01/15 06:50:09;;;;;;;6.13;2.97;;;0.40;59.60;;;;;;4964831;28;114320;-82
2024/01/15 06:52:36;;;;;;;8.18;2.55;;;0.40;59.50;;;;;;4966152;28;114599;-82
2024/01/15 06:55:05;;;;;;;8.80;3.30;;;0.30;59.60;;;;;;4980655;28;115271;-82
2024/01/15 06:57:33;;;;;;;6.55;3.25;;;0.40;59.70;;;;;;4965896;28;114976;-82
2024/01/15 07:00:00;;;;;;;8.07;3.65;;;0.40;59.70;;;;;;4967221;28;114767;-82
2024/01/15 07:02:28;;;;;;;7.57;3.88;;;0.40;59.60;;;;;;4985988;28;114521;-83
2024/01/15 07:04:57;;;;;;;8.23;3.38;;;0.30;59.60;;;;;;4974541;28;115218;-83
2024/01/15 07:07:28;;;;;;;7.47;3.20;;;0.30;59.60;;;;;;4965949;28;114687;-81
2024/01/15 07:09:56;;;;;;;7.05;3.25;;;0.30;59.70;;;;;;4965813;28;114582;-83
2024/01/15 07:12:26;;;;;;;6.50;3.20;;;0.30;59.80;;;;;;4968596;28;114470;-82
2024/01/15 07:14:54;;;;;;;11.50;4.10;;;0.30;59.70;;;;;;4987141;28;116502;-84
2024/01/15 07:17:22;;;;;;;9.15;4.43;;;0.40;59.70;;;;;;4973986;28;115049;-84
2024/01/15 07:19:49;;;;;;;8.50;3.40;;;0.40;59.80;;;;;;4964633;28;114928;-83
2024/01/15 07:22:18;;;;;;;7.85;3.40;;;0.30;59.70;;;;;;4981791;28;114540;-83
2024/01/15 07:24:45;;;;;;;6.95;3.75;;;0.30;59.70;;;;;;4964349;28;116375;-84
2024/01/15 07:27:13;;;;;;;7.20;3.58;;;0.30;59.70;;;;;;4947928;28;114663;-83
2024/01/15 07:29:42;;;;;;;9.40;3.78;;;0.30;59.60;;;;;;4966275;28;114397;-82
2024/01/15 07:32:10;;;;;;;8.63;4.13;;;0.30;59.40;;;;;;4963799;28;114352;-83
2024/01/15 07:34:39;;;;;;;9.88;3.80;;;0.20;59.40;;;;;;4980429;28;115086;-80
2024/01/15 07:37:09;;;;;;;9.20;3.33;;;0.20;59.30;;;;;;4977868;28;114776;-82
2024/01/15 07:39:36;;;;;;;10.05;5.38;;;0.20;59.10;;;;;;4964695;28;114611;-82
2024/01/15 07:42:04;;;;;;;7.63;3.75;;;0.20;59.10;;;;;;4980554;28;114555;-83
2024/01/15 07:44:32;;;;;;;10.15;4.10;;;0.20;59.20;;;;;;4972435;28;116085;-83
2024/01/15 07:47:00;;;;;;;8.95;4.28;;;0.30;59.20;;;;;;4969288;28;115921;-81
2024/01/15 07:49:27;;;;;;;11.73;4.88;;;0.20;59.10;;;;;;4971964;28;114488;-82
2024/01/15 07:51:55;;;;;;;10.70;4.45;;;0.30;59.10;;;;;;4956862;28;114379;-82
2024/01/15 07:54:23;;;;;;;10.43;4.47;;;0.30;59.00;;;;;;4954615;28;115155;-82
2024/01/15 07:56:59;;;;;;;10.27;4.28;;;0.30;59.00;;;;;;4956280;28;114798;-81
2024/01/15 07:59:27;;;;;;;9.15;4.47;;;0.30;59.00;;;;;;4966915;28;114699;-83
2024/01/15 08:01:55;;;;;;;9.43;4.82;;;0.30;58.90;;;;;;4958412;28;114998;-83
2024/01/15 08:04:22;;;;;;;11.02;4.53;;;0.30;59.00;;;;;;4951882;28;115525;-81
2024/01/15 08:06:50;;;;;;;11.20;5.07;;;0.30;59.10;;;;;;4954397;28;116970;-82
2024/01/15 08:09:18;;;;;;;11.77;5.85;;;0.40;59.20;;;;;;4964279;28;114603;-82
2024/01/15 08:11:46;;;;;;;12.95;5.20;;;0.40;58.80;;;;;;4962653;28;114528;-82
2024/01/15 08:14:16;;;;;;;10.85;5.43;;;0.50;58.70;;;;;;4954104;28;115085;-82
2024/01/15 08:16:43;;;;;;;13.35;6.32;;;0.40;58.90;;;;;;4938197;28;117571;-84
2024/01/15 08:19:14;;;;;;;12.13;5.20;;;0.40;58.90;;;;;;4974133;28;114634;-82
2024/01/15 08:21:43;;;;;;;13.00;6.30;;;0.50;58.70;;;;;;4972914;28;114312;-80
2024/01/15 08:24:10;;;;;;;11.85;5.22;;;0.50;58.70;;;;;;4967971;28;115733;-81
2024/01/15 08:26:37;;;;;;;11.43;5.97;;;0.50;58.60;;;;;;4964343;28;114914;-80
2024/01/15 08:29:05;;;;;;;11.38;5.22;;;0.50;58.50;;;;;;4955927;28;114643;-82
2024/01/15 08:31:35;;;;;;;11.55;5.65;;;0.60;58.60;;;;;;4953790;28;115280;-82
2024/01/15 08:34:02;;;;;;;12.57;6.03;;;0.50;58.60;;;;;;4945466;28;118636;-83
2024/01/15 08:36:30;;;;;;;13.10;5.65;;;0.60;58.50;;;;;;4962444;28;114650;-81
2024/01/15 08:38:58;;;;;;;15.85;6.30;;;0.60;58.40;;;;;;4947463;28;114534;-83
2024/01/15 08:41:27;;;;;;;13.02;6.18;;;0.60;58.40;;;;;;4980964;28;114886;-82
2024/01/15 08:43:54;;;;;;;14.10;5.97;;;0.70;58.40;;;;;;4962955;28;117836;-82
2024/01/15 08:46:22;;;;;;;13.45;5.68;;;0.70;58.40;;;;;;4979209;28;115303;-83
2024/01/15 08:48:49;;;;;;;13.43;6.28;;;0.70;58.30;;;;;;4964455;28;114593;-80
2024/01/15 08:51:18;;;;;;;13.20;7.00;;;0.80;58.40;;;;;;4964094;28;114474;-82
2024/01/15 08:53:46;;;;;;;12.02;6.25;;;0.80;58.30;;;;;;4962975;28;118566;-82
2024/01/15 08:56:16;;;;;;;13.95;5.70;;;0.90;58.00;;;;;;4956234;28;118639;-81
2024/01/15 08:58:45;;;;;;;14.10;6.60;;;0.90;57.80;;;;;;4936537;28;114538;-82
2024/01/15 09:01:13;;;;;;;13.75;5.78;;;0.90;57.90;;;;;;4978361;28;114788;-82
2024/01/15 09:03:42;;;;;;;14.05;7.25;;;0.90;57.70;;;;;;4975210;28;115044;-81
2024/01/15 09:06:10;;;;;;;13.05;6.03;;;0.90;57.60;;;;;;4962087;28;118344;-81
2024/01/15 09:08:38;;;;;;;15.77;6.97;;;1.00;57.60;;;;;;4954132;28;114433;-82
2024/01/15 09:11:05;;;;;;;14.57;6.65;;;1.00;57.40;;;;;;4955559;28;114662;-81
2024/01/15 09:13:33;;;;;;;12.98;6.55;;;1.00;57.40;;;;;;4968115;28;115376;-81
2024/01/15 09:16:00;;;;;;;13.00;6.45;;;1.00;57.30;;;;;;4960257;28;117159;-81
2024/01/15 09:18:29;;;;;;;15.20;7.22;;;1.00;57.20;;;;;;4973307;28;114350;-81
2024/01/15 09:20:56;;;;;;;12.88;6.25;;;1.00;57.20;;;;;;4969716;28;114611;-81
2024/01/15 09:23:24;;;;;;;15.70;7.18;;;1.00;57.20;;;;;;4954687;28;115117;-81
2024/01/15 09:25:54;;;;;;;14.98;7.53;;;1.00;57.10;;;;;;4959104;28;116591;-81
2024/01/15 09:28:22;;;;;;;16.10;7.10;;;1.00;57.10;;;;;;4961474;28;114568;-79
2024/01/15 09:30:50;;;;;;;16.15;6.93;;;1.00;57.10;;;;;;4955320;28;115134;-82
2024/01/15 09:33:18;;;;;;;14.15;6.40;;;1.00;57.10;;;;;;4977445;28;115712;-81
2024/01/15 09:35:45;;;;;;;14.48;6.30;;;1.00;57.10;;;;;;4950798;28;114780;-81
2024/01/15 09:38:12;;;;;;;13.20;6.32;;;0.90;57.10;;;;;;4969410;28;114400;-82
2024/01/15 09:40:40;;;;;;;12.43;6.38;;;1.00;57.10;;;;;;4961348;28;114738;-82
2024/01/15 09:43:07;;;;;;;12.55;6.88;;;1.00;57.20;;;;;;4963384;28;115132;-81
2024/01/15 09:45:35;;;;;;;16.80;7.70;;;1.00;57.20;;;;;;4980330;28;114877;-81
2024/01/15 09:48:02;;;;;;;15.68;7.68;;;1.10;57.20;;;;;;4934632;28;114651;-82
2024/01/15 09:50:30;;;;;;;16.98;8.32;;;1.10;57.10;;;;;;4952204;28;114817;-81
2024/01/15 09:52:57;;;;;;;16.30;8.07;;;1.10;57.00;;;;;;4979521;28;115105;-82
2024/01/15 09:55:27;;;;;;;17.33;8.02;;;1.00;57.00;;;;;;4962681;28;115924;-81
2024/01/15 09:57:56;;;;;;;19.25;9.13;;;1.00;57.00;;;;;;4980508;28;114786;-82
2024/01/15 10:00:23;;;;;;;15.05;8.02;;;1.00;56.80;;;;;;4969208;28;114508;-81
2024/01/15 10:02:51;;;;;;;14.85;7.43;;;1.10;57.00;;;;;;4964931;28;115367;-81
2024/01/15 10:05:18;;;;;;;15.18;7.25;;;1.00;56.90;;;;;;4961200;28;114580;-81
2024/01/15 10:07:46;;;;;;;15.75;7.53;;;1.10;56.90;;;;;;4964693;28;114673;-82
2024/01/15 10:10:13;;;;;;;16.70;7.80;;;1.10;57.10;;;;;;4967610;28;114870;-81
2024/01/15 10:12:40;;;;;;;18.73;8.75;;;1.20;56.90;;;;;;4987133;28;114200;-82
2024/01/15 10:15:12;;;;;;;15.85;8.10;;;1.20;56.90;;;;;;4952560;28;117405;-82
2024/01/15 10:17:40;;;;;;;16.48;8.23;;;1.20;57.00;;;;;;4980722;28;114679;-83
2024/01/15 10:20:11;;;;;;;17.50;8.40;;;1.20;56.90;;;;;;4969056;28;114474;-82
2024/01/15 10:22:43;;;;;;;15.25;7.72;;;1.20;56.90;;;;;;4961437;28;115186;-82
2024/01/15 10:25:11;;;;;;;14.38;7.18;;;1.10;56.90;;;;;;4961168;28;115358;-82
2024/01/15 10:27:44;;;;;;;15.30;6.97;;;1.10;56.90;;;;;;4920634;28;114397;-82
2024/01/15 10:30:13;;;;;;;16.35;7.15;;;1.10;56.70;;;;;;4922649;28;114788;-82
2024/01/15 10:32:43;;;;;;;13.32;6.75;;;1.10;56.80;;;;;;4907798;28;115437;-82
2024/01/15 10:35:11;;;;;;;13.00;6.68;;;1.10;56.80;;;;;;4923055;28;116462;-82
2024/01/15 10:37:38;;;;;;;16.58;8.55;;;1.10;56.90;;;;;;4924356;28;114430;-82
2024/01/15 10:40:06;;;;;;;15.93;7.65;;;1.10;56.90;;;;;;4925041;28;114635;-81
2024/01/15 10:42:33;;;;;;;15.25;7.53;;;1.20;56.80;;;;;;4922881;28;115014;-82
2024/01/15 10:45:01;;;;;;;16.67;8.48;;;1.20;56.80;;;;;;4925349;28;114603;-82
2024/01/15 10:47:28;;;;;;;14.07;7.43;;;1.30;56.70;;;;;;4922106;28;114796;-82
2024/01/15 10:49:55;;;;;;;15.55;7.53;;;1.40;56.80;;;;;;4943400;28;114699;-82
2024/01/15 10:52:26;;;;;;;16.80;7.60;;;1.50;56.70;;;;;;4926429;28;116294;-82
2024/01/15 10:54:56;;;;;;;15.75;7.80;;;1.50;56.50;;;;;;4932415;28;114727;-81
2024/01/15 10:57:23;;;;;;;16.88;8.50;;;1.60;56.50;;;;;;4916602;28;114581;-82
2024/01/15 10:59:51;;;;;;;15.80;8.50;;;1.60;56.30;;;;;;4928136;28;114543;-81
2024/01/15 11:02:18;;;;;;;17.27;8.48;;;1.50;55.70;;;;;;4925833;28;117142;-81
2024/01/15 11:04:46;;;;;;;15.40;8.00;;;1.50;55.60;;;;;;4928006;28;114668;-82
2024/01/15 11:07:13;;;;;;;15.10;7.78;;;1.40;55.70;;;;;;4923232;28;114439;-81
2024/01/15 11:09:41;;;;;;;16.08;7.82;;;1.40;55.80;;;;;;4940153;28;114707;-82
2024/01/15 11:12:12;;;;;;;14.40;7.53;;;1.40;55.70;;;;;;4908498;28;114992;-80
2024/01/15 11:14:44;;;;;;;17.35;8.70;;;1.40;55.70;;;;;;4899531;28;117687;-81
2024/01/15 11:17:12;;;;;;;16.85;7.97;;;1.30;55.90;;;;;;4914427;28;114353;-82
2024/01/15 11:19:50;;;;;;;18.08;9.80;;;1.40;56.10;;;;;;4929224;28;114381;-81
2024/01/15 11:23:02;;;;;;;13.93;7.88;;;1.50;56.00;;;;;;4907700;28;115193;-82
2024/01/15 11:25:39;;;;;;;15.77;7.63;;;1.50;55.80;;;;;;4906816;28;114620;-80
2024/01/15 11:28:08;;;;;;;19.45;7.95;;;1.50;55.80;;;;;;4888347;28;114962;-83
2024/01/15 11:30:38;;;;;;;14.50;7.35;;;1.60;55.90;;;;;;4923488;28;114975;-81
2024/01/15 11:33:07;;;;;;;17.35;8.43;;;1.70;55.70;;;;;;4907971;28;115005;-82
2024/01/15 11:36:04;;;;;;;14.77;8.50;;;1.70;55.80;;;;;;4907183;28;114774;-82
2024/01/15 11:38:31;;;;;;;15.70;8.57;;;1.80;55.60;;;;;;4923469;28;114498;-82
2024/01/15 11:40:59;;;;;;;16.58;9.32;;;1.80;55.40;;;;;;4943364;28;114708;-80
2024/01/15 11:43:33;;;;;;;15.77;7.78;;;1.90;55.40;;;;;;4941922;28;117408;-80
2024/01/15 11:46:02;;;;;;;16.00;7.95;;;1.80;55.40;;;;;;4951984;28;114821;-82
2024/01/15 11:48:34;;;;;;;19.60;8.40;;;1.90;55.40;;;;;;4913066;28;114677;-84
2024/01/15 11:51:02;;;;;;;19.50;9.60;;;2.00;55.60;;;;;;4909275;28;114878;-81
2024/01/15 11:53:44;;;;;;;17.73;8.48;;;2.00;55.40;;;;;;4941166;28;115299;-81
2024/01/15 11:56:18;;;;;;;17.83;9.43;;;2.00;55.10;;;;;;4907898;28;115030;-83
2024/01/15 11:58:45;;;;;;;18.25;8.52;;;2.10;55.10;;;;;;4922347;28;114690;-82
2024/01/15 12:01:13;;;;;;;18.38;9.20;;;2.10;54.90;;;;;;4911882;28;114447;-80
2024/01/15 12:03:41;;;;;;;17.67;9.25;;;2.10;54.90;;;;;;4945196;28;115160;-82
2024/01/15 12:06:09;;;;;;;15.63;7.90;;;2.00;54.70;;;;;;4930036;28;115035;-80
2024/01/15 12:08:37;;;;;;;14.38;7.47;;;2.00;54.80;;;;;;4909247;28;114569;-82
2024/01/15 12:11:12;;;;;;;15.45;7.97;;;2.00;54.90;;;;;;4892227;28;114668;-80
2024/01/15 12:13:39;;;;;;;15.15;7.93;;;2.00;54.70;;;;;;4922113;28;117032;-80
2024/01/15 12:16:07;;;;;;;16.98;8.13;;;1.90;54.70;;;;;;4942206;28;114965;-82
2024/01/15 12:18:34;;;;;;;13.63;6.80;;;1.90;54.70;;;;;;4894275;28;114770;-82
2024/01/15 12:21:04;;;;;;;13.20;6.93;;;1.90;54.70;;;;;;4942476;28;114525;-80
2024/01/15 12:23:34;;;;;;;13.98;6.90;;;1.80;54.40;;;;;;4941550;28;117656;-81
2024/01/15 12:26:05;;;;;;;15.70;7.00;;;1.80;54.40;;;;;;4949537;28;114690;-82
2024/01/15 12:28:32;;;;;;;12.90;6.70;;;1.80;54.40;;;;;;4953565;28;114288;-81
2024/01/15 12:31:05;;;;;;;12.13;6.35;;;1.80;54.40;;;;;;4974588;28;113514;-81
2024/01/15 12:33:36;;;;;;;12.63;6.32;;;1.80;54.40;;;;;;4955635;28;114511;-82
2024/01/15 12:36:05;;;;;;;12.60;6.60;;;1.80;54.10;;;;;;4945722;28;115163;-82
2024/01/15 12:38:37;;;;;;;11.52;5.80;;;1.80;54.10;;;;;;4947908;28;114261;-80
2024/01/15 12:41:05;;;;;;;14.55;6.65;;;1.70;54.00;;;;;;4973423;28;114146;-84
2024/01/15 12:43:32;;;;;;;11.50;5.80;;;1.70;54.20;;;;;;4989540;28;116879;-82
2024/01/15 12:46:00;;;;;;;14.50;6.70;;;1.70;54.30;;;;;;4970161;28;115201;-81
2024/01/15 12:48:30;;;;;;;20.45;6.47;;;1.70;54.30;;;;;;4966061;28;114736;-83